createdAt,value
2022-09-04T06:08:08.510Z,99.90
2022-09-04T06:21:31.623Z,99.90
2022-09-04T06:34:40.177Z,99.90
2022-09-04T06:47:40.574Z,99.90
2022-09-04T09:08:06.428Z,99.90
2022-09-04T09:13:45.864Z,99.90
2022-09-04T09:18:49.020Z,99.90
2022-09-04T09:24:18.131Z,99.90
2022-09-04T09:29:39.156Z,99.90
2022-09-04T09:34:59.976Z,99.90
2022-09-04T09:40:22.452Z,99.90
2022-09-04T09:46:06.974Z,99.90
2022-09-04T09:51:34.320Z,99.90
2022-09-04T09:57:17.528Z,99.40
2022-09-04T10:02:32.143Z,97.80
2022-09-04T10:08:17.246Z,96.80
2022-09-04T10:13:37.260Z,97.00
2022-09-04T10:19:10.255Z,95.50
2022-09-04T10:24:33.668Z,94.40
2022-09-04T10:30:04.668Z,93.40
2022-09-04T10:35:21.527Z,92.30
2022-09-04T10:40:43.973Z,92.40
2022-09-04T10:45:45.872Z,92.70
2022-09-04T10:51:04.382Z,92.30
2022-09-04T10:56:10.466Z,91.20
2022-09-04T11:01:47.827Z,91.10
2022-09-04T11:07:19.160Z,90.00
2022-09-04T11:12:48.894Z,90.00
2022-09-04T11:18:19.308Z,87.10
2022-09-04T11:24:03.717Z,87.90
2022-09-04T11:29:04.865Z,86.50
2022-09-04T11:34:40.107Z,85.40
2022-09-04T11:40:06.500Z,82.40
2022-09-04T11:45:27.303Z,84.00
2022-09-04T11:50:35.335Z,81.30
2022-09-04T11:56:07.337Z,80.80
2022-09-04T12:01:20.338Z,77.50
2022-09-04T12:06:26.861Z,78.80
2022-09-04T12:11:43.104Z,78.10
2022-09-04T12:17:15.701Z,78.70
2022-09-04T12:22:36.536Z,77.30
2022-09-04T12:27:58.520Z,83.50
2022-09-04T12:33:31.383Z,85.30
2022-09-04T12:38:51.064Z,91.20
2022-09-04T12:44:01.793Z,99.90
2022-09-04T12:49:07.806Z,99.90
2022-09-04T12:54:16.009Z,99.90
2022-09-04T12:59:23.641Z,99.90
2022-09-04T13:04:27.650Z,99.90
2022-09-04T13:09:33.246Z,99.90
2022-09-04T13:14:52.692Z,99.90
2022-09-04T13:19:55.176Z,99.90
2022-09-04T13:25:02.427Z,99.90
2022-09-04T13:30:07.672Z,99.90
2022-09-04T13:35:17.398Z,99.90
2022-09-04T13:40:39.105Z,99.90
2022-09-04T13:45:35.739Z,99.90
2022-09-04T13:50:33.620Z,99.90
2022-09-04T13:55:32.527Z,99.90
2022-09-04T14:00:27.658Z,99.90
2022-09-04T14:05:25.469Z,99.90
2022-09-04T14:10:25.911Z,99.90
2022-09-04T14:15:31.351Z,99.90
2022-09-04T14:20:28.049Z,99.90
2022-09-04T14:25:30.935Z,99.90
2022-09-04T14:30:26.004Z,99.90
2022-09-04T14:35:29.784Z,99.90
2022-09-04T14:40:28.335Z,99.90
2022-09-04T14:45:35.483Z,99.90
2022-09-04T14:50:30.439Z,99.90
2022-09-04T14:55:28.371Z,99.90
2022-09-04T15:00:24.883Z,99.90
2022-09-04T15:05:25.796Z,99.90
2022-09-04T15:10:24.599Z,99.90
2022-09-04T15:15:22.533Z,99.90
2022-09-04T15:20:23.585Z,99.90
2022-09-04T15:25:57.272Z,99.90
2022-09-04T15:31:04.046Z,99.90
2022-09-04T15:36:09.159Z,99.90
2022-09-04T15:41:16.975Z,99.90
2022-09-04T15:46:19.107Z,99.90
2022-09-04T15:51:22.090Z,99.90
2022-09-04T15:56:31.924Z,99.90
2022-09-04T16:01:29.176Z,99.90
2022-09-04T16:06:27.351Z,99.90
2022-09-04T16:11:26.208Z,99.90
2022-09-04T16:16:23.828Z,99.90
2022-09-04T16:21:32.198Z,99.90
2022-09-04T16:26:31.040Z,99.90
2022-09-04T16:31:31.299Z,99.90
2022-09-04T16:36:30.728Z,99.90
2022-09-04T16:41:29.843Z,99.90
2022-09-04T16:46:29.857Z,99.90
2022-09-04T16:51:41.077Z,99.90
2022-09-04T16:56:40.646Z,99.90
2022-09-04T17:01:45.193Z,99.90
2022-09-04T17:06:56.478Z,99.90
2022-09-04T17:11:55.553Z,99.90
2022-09-04T17:16:58.373Z,99.90
2022-09-04T17:27:32.415Z,99.90
2022-09-04T17:29:15.595Z,99.90
2022-09-04T17:38:53.742Z,99.90
2022-09-04T17:40:50.141Z,99.90
2022-09-04T17:44:06.744Z,99.90
2022-09-04T17:49:00.592Z,99.90
2022-09-04T17:53:59.467Z,99.90
2022-09-04T17:58:59.635Z,99.90
2022-09-04T18:04:21.610Z,99.90
2022-09-04T18:09:26.959Z,99.90
2022-09-04T18:14:32.001Z,99.90
2022-09-04T18:19:32.065Z,99.90
2022-09-04T18:24:29.687Z,99.90
2022-09-04T18:32:31.761Z,99.90
2022-09-04T18:35:06.561Z,99.90
2022-09-04T18:41:22.176Z,99.90
2022-09-04T18:50:32.726Z,99.90
2022-09-04T18:51:19.550Z,99.90
2022-09-04T18:56:20.874Z,99.90
